createdAt,value
2022-07-26T00:01:47.286Z,36.87
2022-07-26T00:04:14.507Z,36.96
2022-07-26T00:06:43.573Z,37.09
2022-07-26T00:09:13.626Z,36.71
2022-07-26T00:11:40.439Z,37.07
2022-07-26T00:14:07.748Z,37.08
2022-07-26T00:16:39.797Z,36.95
2022-07-26T00:19:26.663Z,36.67
2022-07-26T00:22:13.242Z,36.75
2022-07-26T00:24:42.159Z,36.96
2022-07-26T00:27:10.900Z,36.71
2022-07-26T00:29:39.710Z,36.74
2022-07-26T00:32:08.715Z,37.00
2022-07-26T00:34:37.592Z,36.95
2022-07-26T00:37:04.198Z,37.42
2022-07-26T00:39:30.824Z,37.57
2022-07-26T00:41:57.455Z,37.48
2022-07-26T00:44:24.514Z,37.00
2022-07-26T00:46:54.959Z,37.03
2022-07-26T00:49:22.300Z,38.68
2022-07-26T00:51:49.136Z,38.73
2022-07-26T00:54:15.729Z,39.27
2022-07-26T00:56:42.423Z,39.19
2022-07-26T00:59:10.134Z,38.76
2022-07-26T01:01:37.620Z,38.63
2022-07-26T01:04:05.019Z,38.93
2022-07-26T01:06:31.835Z,38.76
2022-07-26T01:08:58.373Z,38.89
2022-07-26T01:11:27.593Z,39.01
2022-07-26T01:13:54.276Z,38.72
2022-07-26T01:16:23.610Z,38.95
2022-07-26T01:18:50.787Z,38.95
2022-07-26T01:21:17.632Z,39.10
2022-07-26T01:23:47.237Z,39.11
2022-07-26T01:26:14.055Z,39.01
2022-07-26T01:28:44.952Z,39.10
2022-07-26T01:31:11.538Z,39.01
2022-07-26T01:33:38.192Z,39.46
2022-07-26T01:36:08.141Z,39.73
2022-07-26T01:38:34.898Z,40.03
2022-07-26T01:41:03.892Z,39.77
2022-07-26T01:43:33.360Z,39.90
2022-07-26T01:46:02.270Z,39.86
2022-07-26T01:48:28.913Z,39.77
2022-07-26T01:50:56.992Z,40.10
2022-07-26T01:53:23.602Z,40.81
2022-07-26T01:55:50.677Z,40.98
2022-07-26T01:58:17.422Z,42.17
2022-07-26T02:00:46.255Z,42.36
2022-07-26T02:03:12.964Z,43.60
2022-07-26T02:05:41.695Z,42.52
2022-07-26T02:08:08.740Z,42.63
2022-07-26T02:10:56.548Z,42.08
2022-07-26T02:13:24.061Z,43.04
2022-07-26T02:15:50.804Z,42.42
2022-07-26T02:18:17.514Z,42.37
2022-07-26T02:20:46.625Z,44.91
2022-07-26T02:23:17.137Z,43.95
2022-07-26T02:25:43.701Z,43.93
2022-07-26T02:28:13.528Z,43.78
2022-07-26T02:30:40.485Z,43.73
2022-07-26T02:33:09.374Z,43.43
2022-07-26T02:35:36.145Z,44.28
2022-07-26T02:38:03.912Z,43.45
2022-07-26T02:40:33.553Z,43.58
2022-07-26T02:43:00.276Z,44.05
2022-07-26T02:45:27.422Z,43.27
2022-07-26T02:47:54.474Z,43.13
2022-07-26T02:50:25.775Z,41.81
2022-07-26T02:52:52.762Z,41.58
2022-07-26T02:55:22.195Z,42.31
2022-07-26T02:57:48.995Z,42.25
2022-07-26T03:00:16.761Z,42.21
2022-07-26T03:02:45.701Z,42.04
2022-07-26T03:05:15.053Z,42.28
2022-07-26T03:07:41.738Z,42.33
2022-07-26T03:10:08.447Z,42.30
2022-07-26T03:12:37.886Z,42.32
2022-07-26T03:15:07.217Z,42.47
2022-07-26T03:17:33.838Z,42.08
2022-07-26T03:20:00.996Z,42.17
2022-07-26T03:22:29.857Z,41.68
2022-07-26T03:24:56.504Z,41.80
2022-07-26T03:27:25.595Z,41.48
2022-07-26T03:29:52.262Z,41.68
2022-07-26T03:32:19.459Z,41.64
2022-07-26T03:34:48.532Z,41.29
2022-07-26T03:37:18.685Z,41.37
2022-07-26T03:39:45.798Z,41.40
2022-07-26T03:42:12.389Z,41.04
2022-07-26T03:44:39.456Z,40.71
2022-07-26T03:47:08.560Z,40.36
2022-07-26T03:49:35.280Z,40.31
2022-07-26T03:52:02.049Z,40.42
2022-07-26T03:54:31.605Z,40.30
2022-07-26T03:56:58.163Z,40.14
2022-07-26T03:59:25.728Z,39.94
2022-07-26T04:01:52.412Z,39.80
2022-07-26T04:04:19.318Z,40.08
2022-07-26T04:06:52.050Z,40.06
2022-07-26T04:09:19.979Z,40.21
2022-07-26T04:11:49.059Z,39.97
2022-07-26T04:14:15.750Z,39.97
2022-07-26T04:16:43.802Z,39.92
2022-07-26T04:19:11.013Z,39.78
2022-07-26T04:24:53.037Z,40.11
2022-07-26T04:27:27.643Z,40.13
2022-07-26T04:29:54.305Z,40.02
2022-07-26T04:32:21.040Z,39.78
2022-07-26T04:34:52.269Z,39.62
2022-07-26T04:37:18.932Z,39.13
2022-07-26T04:39:45.671Z,39.28
2022-07-26T04:42:12.411Z,38.48
2022-07-26T04:44:39.150Z,38.44
2022-07-26T04:47:05.900Z,38.40
2022-07-26T04:49:32.483Z,38.74
2022-07-26T04:51:59.689Z,38.77
2022-07-26T04:54:28.859Z,38.98
2022-07-26T04:56:59.992Z,38.78
2022-07-26T04:59:26.615Z,38.39
2022-07-26T05:01:53.319Z,38.03
2022-07-26T05:04:20.021Z,37.87
2022-07-26T05:06:49.559Z,38.05
2022-07-26T05:09:19.186Z,37.97
2022-07-26T05:11:45.845Z,37.94
2022-07-26T05:14:15.891Z,38.03
2022-07-26T05:16:44.193Z,37.64
2022-07-26T05:19:14.662Z,37.54
2022-07-26T05:21:41.348Z,37.94
2022-07-26T05:24:08.441Z,37.91
2022-07-26T05:26:35.582Z,37.88
2022-07-26T05:29:04.994Z,37.53
2022-07-26T05:31:31.743Z,37.43
2022-07-26T05:34:00.978Z,37.44
2022-07-26T05:36:27.639Z,37.57
2022-07-26T05:38:54.359Z,37.53
2022-07-26T05:41:21.659Z,37.28
2022-07-26T05:43:50.755Z,36.94
2022-07-26T05:46:17.397Z,36.28
2022-07-26T05:48:46.449Z,36.48
2022-07-26T05:51:15.433Z,36.56
2022-07-26T05:53:47.468Z,36.58
2022-07-26T05:56:17.214Z,36.69
2022-07-26T05:58:43.854Z,36.46
2022-07-26T06:01:13.578Z,37.42
2022-07-26T06:03:43.267Z,38.43
2022-07-26T06:06:10.572Z,39.46
2022-07-26T06:08:37.401Z,40.86
2022-07-26T06:11:06.920Z,41.56
2022-07-26T06:13:39.395Z,40.96
2022-07-26T06:16:06.237Z,41.50
2022-07-26T06:18:33.385Z,41.54
2022-07-26T06:21:02.465Z,42.01
2022-07-26T06:23:34.337Z,42.54
2022-07-26T06:26:05.004Z,42.53
2022-07-26T06:28:32.308Z,43.37
2022-07-26T06:30:59.129Z,43.30
2022-07-26T06:33:25.967Z,43.33
2022-07-26T06:35:52.705Z,44.04
2022-07-26T06:38:19.552Z,43.60
2022-07-26T06:40:46.431Z,43.43
2022-07-26T06:43:15.876Z,43.86
2022-07-26T06:45:42.550Z,43.88
2022-07-26T06:48:09.165Z,43.74
2022-07-26T06:50:36.386Z,43.69
2022-07-26T06:53:03.326Z,44.13
2022-07-26T06:55:30.371Z,43.75
2022-07-26T06:58:00.800Z,43.70
2022-07-26T07:00:27.490Z,43.24
2022-07-26T07:02:54.687Z,43.70
2022-07-26T07:05:22.019Z,43.67
2022-07-26T07:07:48.861Z,43.21
2022-07-26T07:10:15.633Z,43.01
2022-07-26T07:12:45.511Z,42.76
2022-07-26T07:15:12.276Z,42.73
2022-07-26T07:17:39.109Z,41.95
2022-07-26T07:20:06.241Z,41.83
2022-07-26T07:22:33.230Z,41.35
2022-07-26T07:25:03.116Z,41.71
2022-07-26T07:27:33.047Z,41.83
2022-07-26T07:30:00.984Z,42.01
2022-07-26T07:32:28.526Z,42.25
2022-07-26T07:34:59.673Z,42.08
2022-07-26T07:37:26.532Z,42.52
2022-07-26T07:39:53.093Z,42.32
2022-07-26T07:42:20.731Z,42.49
2022-07-26T07:44:47.519Z,42.77
2022-07-26T07:47:14.423Z,43.14
2022-07-26T07:49:44.124Z,42.73
2022-07-26T07:52:10.850Z,42.59
2022-07-26T07:54:37.962Z,42.48
2022-07-26T07:57:06.997Z,42.84
2022-07-26T07:59:37.120Z,42.06
2022-07-26T08:02:06.412Z,42.27
2022-07-26T08:04:33.211Z,42.30
2022-07-26T08:07:03.121Z,41.76
2022-07-26T08:09:33.829Z,41.57
2022-07-26T08:12:01.066Z,42.19
2022-07-26T08:14:35.883Z,42.81
2022-07-26T08:17:08.068Z,43.38
2022-07-26T08:19:41.734Z,43.48
2022-07-26T08:22:09.785Z,43.79
2022-07-26T08:24:39.544Z,44.09
2022-07-26T08:27:06.343Z,43.97
2022-07-26T08:29:33.406Z,44.21
2022-07-26T08:32:00.252Z,44.28
2022-07-26T08:34:27.091Z,44.67
2022-07-26T08:37:15.365Z,45.25
2022-07-26T08:39:40.923Z,45.16
2022-07-26T08:42:17.142Z,45.05
2022-07-26T08:44:49.540Z,44.98
2022-07-26T08:47:17.482Z,45.36
2022-07-26T08:50:02.450Z,44.85
2022-07-26T08:52:29.089Z,44.78
2022-07-26T08:54:55.865Z,44.67
2022-07-26T08:57:22.563Z,44.46
2022-07-26T09:00:09.332Z,44.79
2022-07-26T09:02:39.739Z,44.24
2022-07-26T09:05:11.002Z,43.88
2022-07-26T09:07:40.341Z,43.72
2022-07-26T09:10:08.515Z,43.04
2022-07-26T09:12:40.869Z,43.03
2022-07-26T09:15:09.065Z,42.54
2022-07-26T09:17:40.705Z,41.92
2022-07-26T09:20:07.930Z,41.03
2022-07-26T09:22:34.816Z,40.71
2022-07-26T09:25:01.722Z,40.62
2022-07-26T09:27:34.404Z,39.71
2022-07-26T09:30:04.959Z,39.94
2022-07-26T09:32:31.782Z,39.51
2022-07-26T09:35:44.199Z,39.51
2022-07-26T09:37:59.004Z,39.77
2022-07-26T09:40:31.231Z,40.37
2022-07-26T09:43:04.199Z,40.54
2022-07-26T09:45:32.807Z,41.67
2022-07-26T09:47:59.760Z,43.50
2022-07-26T09:50:28.118Z,44.05
2022-07-26T09:53:02.680Z,45.47
2022-07-26T09:55:42.531Z,47.02
2022-07-26T09:58:14.734Z,49.34
2022-07-26T10:00:44.384Z,53.17
2022-07-26T10:03:11.374Z,57.46
2022-07-26T10:05:38.389Z,59.35
2022-07-26T10:08:07.877Z,61.75
2022-07-26T10:10:34.493Z,64.41
2022-07-26T10:13:03.077Z,65.70
2022-07-26T10:15:39.513Z,67.42
2022-07-26T10:18:09.053Z,68.22
2022-07-26T10:20:40.317Z,68.53
2022-07-26T10:23:25.874Z,70.09
2022-07-26T10:25:54.355Z,71.41
2022-07-26T10:28:26.321Z,71.79
2022-07-26T10:30:55.449Z,72.32
2022-07-26T10:33:25.403Z,72.11
2022-07-26T10:35:51.953Z,72.32
2022-07-26T10:38:25.770Z,71.84
2022-07-26T10:40:58.708Z,71.15
2022-07-26T10:43:42.053Z,70.48
2022-07-26T10:46:12.006Z,69.61
2022-07-26T10:48:57.640Z,68.73
2022-07-26T10:51:28.442Z,67.56
2022-07-26T10:54:01.534Z,67.06
2022-07-26T10:56:33.618Z,67.39
2022-07-26T10:59:01.559Z,67.88
2022-07-26T11:01:34.151Z,67.86
2022-07-26T11:04:01.282Z,66.90
2022-07-26T11:06:28.541Z,67.36
2022-07-26T11:08:56.092Z,68.32
2022-07-26T11:11:32.974Z,68.81
2022-07-26T11:14:10.664Z,68.32
2022-07-26T11:16:41.371Z,68.14
2022-07-26T11:19:20.138Z,68.18
2022-07-26T11:21:47.908Z,68.04
2022-07-26T11:24:14.851Z,68.34
2022-07-26T11:26:42.786Z,67.93
2022-07-26T11:29:09.591Z,68.07
2022-07-26T11:31:51.594Z,67.81
2022-07-26T11:34:24.261Z,66.61
2022-07-26T11:36:51.911Z,66.97
2022-07-26T11:39:22.591Z,66.05
2022-07-26T11:41:52.543Z,65.25
2022-07-26T11:44:20.528Z,64.91
2022-07-26T11:46:50.109Z,64.69
2022-07-26T11:49:20.245Z,64.46
2022-07-26T11:51:54.311Z,64.08
2022-07-26T11:54:27.116Z,64.08
2022-07-26T11:56:56.979Z,63.95
2022-07-26T11:59:24.353Z,63.95
2022-07-26T12:01:53.455Z,63.67
2022-07-26T12:04:23.578Z,63.34
2022-07-26T12:06:50.808Z,63.58
2022-07-26T12:09:29.789Z,63.30
2022-07-26T12:12:01.050Z,63.30
2022-07-26T12:14:33.734Z,62.72
2022-07-26T12:17:10.734Z,62.38
2022-07-26T12:19:39.745Z,61.28
2022-07-26T12:22:16.688Z,61.09
2022-07-26T12:24:46.319Z,61.38
2022-07-26T12:27:13.020Z,60.27
2022-07-26T12:29:40.463Z,61.07
2022-07-26T12:32:12.072Z,60.39
2022-07-26T12:34:43.358Z,59.82
2022-07-26T12:37:13.402Z,58.98
2022-07-26T12:39:41.275Z,58.20
2022-07-26T12:42:22.800Z,58.33
2022-07-26T12:45:00.272Z,58.04
2022-07-26T12:47:29.884Z,58.64
2022-07-26T12:49:56.745Z,58.55
2022-07-26T12:52:23.614Z,58.51
2022-07-26T12:54:53.524Z,58.33
2022-07-26T12:57:20.310Z,58.63
2022-07-26T12:59:49.484Z,59.24
2022-07-26T13:02:19.558Z,57.77
2022-07-26T13:04:46.677Z,56.56
2022-07-26T13:07:14.274Z,56.56
2022-07-26T13:09:43.323Z,56.71
2022-07-26T13:12:12.289Z,55.16
2022-07-26T13:14:39.214Z,54.48
2022-07-26T13:17:06.891Z,49.01
2022-07-26T13:19:33.682Z,44.64
2022-07-26T13:22:00.530Z,42.20
2022-07-26T13:24:30.404Z,39.20
2022-07-26T13:26:57.583Z,39.61
2022-07-26T13:29:27.204Z,41.83
2022-07-26T13:31:56.197Z,45.11
2022-07-26T13:34:23.340Z,46.14
2022-07-26T13:36:50.493Z,46.39
2022-07-26T13:39:17.490Z,47.52
2022-07-26T13:41:44.500Z,48.91
2022-07-26T13:44:11.619Z,48.88
2022-07-26T13:46:41.756Z,49.18
2022-07-26T13:49:08.843Z,49.20
2022-07-26T13:51:54.381Z,48.89
2022-07-26T13:54:21.501Z,49.21
2022-07-26T13:56:48.576Z,50.08
2022-07-26T13:59:15.222Z,51.49
2022-07-26T14:01:46.745Z,51.06
2022-07-26T14:04:14.364Z,51.67
2022-07-26T14:06:41.503Z,52.36
2022-07-26T14:09:11.188Z,52.03
2022-07-26T14:11:38.044Z,51.98
2022-07-26T14:14:04.598Z,51.31
2022-07-26T14:16:31.458Z,51.97
2022-07-26T14:18:58.364Z,52.24
2022-07-26T14:21:29.068Z,52.25
2022-07-26T14:24:05.372Z,52.23
2022-07-26T14:26:34.472Z,52.81
2022-07-26T14:29:01.259Z,51.95
2022-07-26T14:31:32.434Z,50.06
2022-07-26T14:34:04.414Z,49.32
2022-07-26T14:36:31.061Z,50.39
2022-07-26T14:38:57.753Z,49.92
2022-07-26T14:41:27.457Z,50.81
2022-07-26T14:43:55.533Z,51.20
2022-07-26T14:46:22.511Z,52.44
2022-07-26T14:48:54.894Z,52.46
2022-07-26T14:51:21.850Z,52.38
2022-07-26T14:53:51.163Z,52.22
2022-07-26T14:56:20.858Z,51.61
2022-07-26T14:58:47.610Z,51.76
2022-07-26T15:01:14.524Z,51.63
2022-07-26T15:03:41.780Z,52.43
2022-07-26T15:06:08.959Z,52.06
2022-07-26T15:08:36.177Z,52.41
2022-07-26T15:11:02.817Z,52.04
2022-07-26T15:13:32.163Z,52.01
2022-07-26T15:16:01.162Z,52.73
2022-07-26T15:18:30.263Z,53.07
2022-07-26T15:20:57.935Z,52.92
2022-07-26T15:23:24.880Z,53.31
2022-07-26T15:25:53.691Z,52.79
2022-07-26T15:28:20.316Z,53.07
2022-07-26T15:30:49.433Z,53.68
2022-07-26T15:33:25.316Z,52.95
2022-07-26T15:35:59.471Z,52.64
2022-07-26T15:38:30.546Z,53.06
2022-07-26T15:41:02.740Z,52.13
2022-07-26T15:43:48.986Z,52.27
2022-07-26T15:46:24.790Z,51.61
2022-07-26T15:48:54.010Z,52.19
2022-07-26T15:51:26.222Z,51.63
2022-07-26T15:53:52.827Z,51.91
2022-07-26T15:56:22.817Z,52.25
2022-07-26T15:58:49.425Z,52.46
2022-07-26T16:01:16.079Z,51.89
2022-07-26T16:03:45.425Z,52.56
2022-07-26T16:06:12.081Z,51.62
2022-07-26T16:08:58.519Z,52.54
2022-07-26T16:11:25.404Z,52.78
2022-07-26T16:13:52.154Z,53.63
2022-07-26T16:16:28.719Z,53.08
2022-07-26T16:18:55.913Z,53.28
2022-07-26T16:21:22.632Z,53.27
2022-07-26T16:23:51.068Z,53.36
2022-07-26T16:26:17.930Z,53.27
2022-07-26T16:28:44.529Z,52.64
2022-07-26T16:31:11.523Z,53.01
2022-07-26T16:33:46.513Z,53.18
2022-07-26T16:36:15.885Z,52.96
2022-07-26T16:38:42.594Z,53.28
2022-07-26T16:41:11.745Z,53.30
2022-07-26T16:43:38.470Z,52.88
2022-07-26T16:46:05.106Z,52.28
2022-07-26T16:48:34.243Z,52.51
2022-07-26T16:51:03.639Z,51.97
2022-07-26T16:53:30.491Z,51.87
2022-07-26T16:55:57.073Z,50.99
2022-07-26T16:58:23.789Z,51.44
2022-07-26T17:00:50.642Z,49.40
2022-07-26T17:03:17.446Z,48.33
2022-07-26T17:05:47.336Z,47.92
2022-07-26T17:08:14.950Z,48.25
2022-07-26T17:10:41.689Z,48.24
2022-07-26T17:13:08.417Z,48.40
2022-07-26T17:15:35.042Z,48.71
2022-07-26T17:18:04.415Z,48.79
2022-07-26T17:20:31.157Z,49.14
2022-07-26T17:23:02.655Z,50.10
2022-07-26T17:25:29.588Z,50.38
2022-07-26T17:27:56.506Z,50.79
2022-07-26T17:30:23.223Z,51.68
2022-07-26T17:32:53.330Z,51.90
2022-07-26T17:35:22.045Z,51.98
2022-07-26T17:37:48.780Z,51.63
2022-07-26T17:40:16.367Z,51.74
2022-07-26T17:42:43.215Z,51.55
2022-07-26T17:45:10.071Z,51.88
2022-07-26T17:47:36.723Z,51.91
2022-07-26T17:50:35.515Z,51.71
2022-07-26T17:52:55.820Z,51.63
2022-07-26T17:55:22.566Z,51.53
2022-07-26T17:57:51.852Z,51.77
2022-07-26T18:00:19.059Z,51.73
2022-07-26T18:02:45.896Z,52.20
2022-07-26T18:05:14.955Z,52.35
2022-07-26T18:07:41.665Z,52.13
2022-07-26T18:10:11.561Z,52.49
2022-07-26T18:12:43.052Z,52.61
2022-07-26T18:15:10.059Z,52.51
2022-07-26T18:17:37.173Z,52.62
2022-07-26T18:20:05.560Z,52.82
2022-07-26T18:22:34.331Z,53.17
2022-07-26T18:25:01.030Z,52.81
2022-07-26T18:27:28.474Z,53.10
2022-07-26T18:29:55.813Z,53.57
2022-07-26T18:32:24.821Z,54.17
2022-07-26T18:34:52.580Z,54.80
2022-07-26T18:37:21.914Z,54.68
2022-07-26T18:39:52.746Z,55.16
2022-07-26T18:42:25.014Z,54.82
2022-07-26T18:44:52.701Z,55.21
2022-07-26T18:47:23.119Z,55.51
2022-07-26T18:49:50.183Z,55.36
2022-07-26T18:52:17.613Z,54.87
2022-07-26T18:54:55.882Z,55.47
2022-07-26T18:57:27.371Z,55.19
2022-07-26T18:59:54.087Z,55.99
2022-07-26T19:02:23.056Z,55.52
2022-07-26T19:04:49.735Z,56.07
2022-07-26T19:07:16.330Z,56.54
2022-07-26T19:09:42.943Z,57.52
2022-07-26T19:12:10.037Z,57.69
2022-07-26T19:14:37.097Z,57.44
2022-07-26T19:17:05.848Z,57.15
2022-07-26T19:19:32.649Z,57.03
2022-07-26T19:21:59.478Z,57.66
2022-07-26T19:24:43.619Z,57.79
2022-07-26T19:27:10.880Z,57.42
2022-07-26T19:29:40.610Z,57.61
2022-07-26T19:32:08.265Z,57.52
2022-07-26T19:34:35.112Z,57.96
2022-07-26T19:37:01.872Z,58.54
2022-07-26T19:39:28.526Z,58.17
2022-07-26T19:41:55.233Z,58.18
2022-07-26T19:44:24.263Z,58.38
2022-07-26T19:46:55.566Z,58.51
2022-07-26T19:49:26.894Z,58.82
2022-07-26T19:51:53.629Z,59.26
2022-07-26T19:54:23.035Z,58.80
2022-07-26T19:56:51.715Z,59.05
2022-07-26T19:59:23.413Z,58.87
2022-07-26T20:01:52.882Z,59.27
2022-07-26T20:04:21.932Z,59.23
2022-07-26T20:06:58.025Z,58.84
2022-07-26T20:09:24.872Z,59.04
2022-07-26T20:11:55.855Z,59.30
2022-07-26T20:14:22.683Z,59.44
2022-07-26T20:16:52.980Z,59.45
2022-07-26T20:19:29.132Z,60.10
2022-07-26T20:22:11.695Z,59.74
2022-07-26T20:24:41.237Z,59.58
2022-07-26T20:27:10.431Z,59.76
2022-07-26T20:29:39.820Z,59.91
2022-07-26T20:32:06.474Z,60.38
2022-07-26T20:34:36.196Z,60.80
2022-07-26T20:37:05.671Z,60.82
2022-07-26T20:39:35.952Z,61.22
2022-07-26T20:42:02.767Z,61.31
2022-07-26T20:44:32.708Z,61.32
2022-07-26T20:47:01.187Z,61.60
2022-07-26T20:49:30.647Z,61.15
2022-07-26T20:51:57.867Z,61.16
2022-07-26T20:54:24.482Z,60.67
2022-07-26T20:56:51.564Z,60.87
2022-07-26T20:59:18.173Z,60.58
2022-07-26T21:01:44.786Z,60.81
2022-07-26T21:04:16.326Z,61.32
2022-07-26T21:06:43.245Z,60.57
2022-07-26T21:09:10.691Z,61.29
2022-07-26T21:11:38.277Z,60.96
2022-07-26T21:14:07.688Z,60.81
2022-07-26T21:16:34.818Z,60.72
2022-07-26T21:19:02.174Z,60.90
2022-07-26T21:21:29.721Z,60.84
2022-07-26T21:23:59.800Z,60.58
2022-07-26T21:26:26.745Z,60.98
2022-07-26T21:28:56.308Z,60.75
2022-07-26T21:31:22.834Z,60.74
2022-07-26T21:33:49.380Z,60.69
2022-07-26T21:36:16.550Z,60.44
2022-07-26T21:38:44.177Z,60.74
2022-07-26T21:41:14.000Z,60.52
2022-07-26T21:43:40.667Z,60.69
2022-07-26T21:46:13.055Z,61.42
2022-07-26T21:48:42.626Z,61.60
2022-07-26T21:51:09.319Z,61.65
2022-07-26T21:53:36.386Z,62.10
2022-07-26T21:56:05.534Z,61.60
2022-07-26T21:58:36.104Z,61.50
2022-07-26T22:01:07.153Z,61.24
2022-07-26T22:03:34.464Z,61.16
2022-07-26T22:06:03.879Z,60.58
2022-07-26T22:08:32.017Z,59.88
2022-07-26T22:10:59.225Z,60.06
2022-07-26T22:13:25.944Z,59.37
2022-07-26T22:15:52.647Z,59.34
2022-07-26T22:18:22.251Z,59.08
2022-07-26T22:20:51.654Z,58.87
2022-07-26T22:23:18.687Z,58.63
2022-07-26T22:25:47.610Z,58.36
2022-07-26T22:28:17.802Z,58.15
2022-07-26T22:30:44.757Z,58.00
2022-07-26T22:33:12.092Z,58.08
2022-07-26T22:35:38.856Z,57.18
2022-07-26T22:38:09.989Z,56.87
2022-07-26T22:40:37.020Z,56.31
2022-07-26T22:43:03.874Z,55.68
2022-07-26T22:45:35.597Z,56.05
2022-07-26T22:48:02.662Z,56.23
2022-07-26T22:50:29.268Z,56.08
2022-07-26T22:52:56.108Z,56.23
2022-07-26T22:55:25.158Z,56.00
2022-07-26T22:57:52.025Z,56.25
2022-07-26T23:00:19.074Z,56.04
2022-07-26T23:02:45.879Z,56.21
2022-07-26T23:05:14.890Z,56.19
2022-07-26T23:07:41.643Z,56.20
2022-07-26T23:10:14.282Z,56.17
2022-07-26T23:12:41.201Z,56.00
2022-07-26T23:15:09.817Z,55.12
2022-07-26T23:17:37.539Z,54.62
2022-07-26T23:20:04.970Z,54.75
2022-07-26T23:22:33.884Z,54.77
2022-07-26T23:25:03.455Z,55.11
2022-07-26T23:27:30.520Z,55.47
2022-07-26T23:29:59.625Z,55.31
2022-07-26T23:32:26.253Z,54.89
2022-07-26T23:34:52.975Z,54.76
2022-07-26T23:37:20.026Z,54.91
2022-07-26T23:39:46.674Z,54.60
2022-07-26T23:42:13.319Z,54.36
2022-07-26T23:44:39.912Z,54.67
2022-07-26T23:47:06.707Z,54.34
2022-07-26T23:49:36.144Z,54.68
2022-07-26T23:52:03.326Z,54.99
2022-07-26T23:54:29.937Z,55.13
2022-07-26T23:56:56.707Z,55.43
2022-07-26T23:59:26.329Z,55.57
